Time;durP1;ratioP1;P1;durP2;ratioP2;P2;SDS_P1;SDS_P2;PMS_P1;PMS_P2;Temp;Humidity;BMP_temperature;BMP_pressure;BME280_temperature;BME280_humidity;BME280_pressure;Samples;Min_cycle;Max_cycle;Signal;HPM_P1;HPM_P2
2023/08/19 00:01:10;;;;;;;0.95;0.95;;;;;;;20.02;72.58;97111.25;5041426;28;20130;-65
2023/08/19 00:03:37;;;;;;;0.80;0.80;;;;;;;20.03;72.31;97110.03;5041694;28;20518;-65
2023/08/19 00:06:31;;;;;;;0.75;0.75;;;;;;;19.92;72.77;97112.22;5041731;28;20132;-66
2023/08/19 00:09:01;;;;;;;0.90;0.90;;;;;;;19.50;73.33;97047.16;5043608;28;20064;-66
2023/08/19 00:11:27;;;;;;;0.90;0.90;;;;;;;19.84;73.80;97105.19;5043493;28;20132;-66
2023/08/19 00:13:54;;;;;;;0.90;0.90;;;;;;;19.89;73.39;97101.84;5045017;28;20060;-65
2023/08/19 00:16:21;;;;;;;0.80;0.80;;;;;;;19.02;73.19;96954.06;5043595;28;20444;-65
2023/08/19 00:18:48;;;;;;;0.80;0.80;;;;;;;17.74;73.94;96767.84;5045008;28;20140;-66
2023/08/19 00:21:15;;;;;;;0.90;0.90;;;;;;;19.44;73.91;97043.22;5045055;28;20478;-65
2023/08/19 00:23:42;;;;;;;0.90;0.90;;;;;;;19.71;73.38;97098.56;5043560;28;20063;-65
2023/08/19 00:26:11;;;;;;;0.90;0.90;;;;;;;19.70;73.45;97102.59;5044773;28;20049;-66
2023/08/19 00:28:38;;;;;;;0.95;0.95;;;;;;;19.51;72.67;97037.50;5044117;28;20053;-65
2023/08/19 00:31:06;;;;;;;0.80;0.80;;;;;;;19.73;72.90;97084.91;5041743;28;20048;-65
2023/08/19 00:33:33;;;;;;;0.80;0.80;;;;;;;19.35;73.36;97048.63;5041932;28;20060;-65
2023/08/19 00:36:01;;;;;;;0.80;0.80;;;;;;;19.62;73.33;97075.84;5041361;28;20056;-65
2023/08/19 00:38:27;;;;;;;0.80;0.80;;;;;;;19.60;73.57;97089.53;5043019;28;20060;-64
2023/08/19 00:40:55;;;;;;;0.80;0.80;;;;;;;19.53;74.00;97080.03;5042785;28;20068;-65
2023/08/19 00:43:21;;;;;;;0.80;0.80;;;;;;;19.55;74.24;97094.41;5042996;28;20098;-65
2023/08/19 00:45:49;;;;;;;0.80;0.80;;;;;;;19.51;74.58;97088.06;5042736;28;20048;-65
2023/08/19 00:48:18;;;;;;;0.80;0.80;;;;;;;19.50;74.57;97100.53;5042769;28;20131;-65
2023/08/19 00:50:46;;;;;;;0.80;0.80;;;;;;;19.49;74.61;97096.13;5042657;28;20561;-65
2023/08/19 00:53:15;;;;;;;0.80;0.80;;;;;;;18.96;74.50;97023.16;5043350;28;20318;-66
2023/08/19 00:55:42;;;;;;;0.88;0.88;;;;;;;19.10;74.44;97051.00;5044341;28;20059;-65
2023/08/19 00:58:09;;;;;;;0.90;0.90;;;;;;;19.08;74.38;97059.06;5044213;28;20121;-66
2023/08/19 01:00:35;;;;;;;0.88;0.88;;;;;;;19.01;74.47;97042.34;5043481;28;20409;-65
2023/08/19 01:03:06;;;;;;;0.82;0.82;;;;;;;19.30;74.79;97099.66;5043485;28;20499;-65
2023/08/19 01:06:03;;;;;;;0.80;0.80;;;;;;;19.34;74.65;97094.78;5043340;28;20241;-65
2023/08/19 01:08:42;;;;;;;0.80;0.80;;;;;;;19.23;74.98;97102.56;5043667;28;20067;-65
2023/08/19 01:11:24;;;;;;;0.80;0.80;;;;;;;19.16;75.56;97105.47;5030257;28;20054;-65
2023/08/19 01:14:12;;;;;;;0.80;0.80;;;;;;;19.14;74.99;97091.06;5023836;28;20539;-65
2023/08/19 01:16:43;;;;;;;0.80;0.80;;;;;;;19.32;74.81;97108.47;5023609;28;20053;-65
2023/08/19 01:19:22;;;;;;;0.80;0.80;;;;;;;18.83;74.82;97033.41;5023334;28;20367;-65
2023/08/19 01:21:52;;;;;;;0.80;0.80;;;;;;;19.33;74.83;97121.28;5023771;28;20570;-66
2023/08/19 01:24:22;;;;;;;0.80;0.80;;;;;;;19.06;74.38;97088.78;5041883;28;20061;-65
2023/08/19 01:26:49;;;;;;;0.80;0.80;;;;;;;19.21;74.57;97107.81;5041718;28;20499;-67
2023/08/19 01:29:15;;;;;;;0.80;0.80;;;;;;;18.52;79.84;97116.03;5044064;28;20049;-67
2023/08/19 01:31:42;;;;;;;0.80;0.80;;;;;;;18.13;86.22;97114.88;5043453;28;20049;-67
2023/08/19 01:34:09;;;;;;;0.80;0.80;;;;;;;17.61;91.51;97111.41;5043132;28;20122;-66
2023/08/19 01:36:41;;;;;;;0.73;0.73;;;;;;;17.62;93.24;97104.59;5041809;28;20512;-67
2023/08/19 01:39:09;;;;;;;0.70;0.70;;;;;;;17.64;95.21;97110.59;5043523;28;20053;-67
2023/08/19 01:41:37;;;;;;;0.75;0.75;;;;;;;17.84;94.89;97089.16;5043445;28;20045;-67
2023/08/19 01:44:05;;;;;;;0.80;0.80;;;;;;;17.44;98.58;97045.94;5043915;28;20053;-67
2023/08/19 01:46:31;;;;;;;0.70;0.70;;;;;;;17.04;100.00;96992.72;5042267;28;20052;-67
2023/08/19 01:48:58;;;;;;;0.70;0.70;;;;;;;17.51;100.00;97087.09;5043165;28;20524;-67
2023/08/19 01:51:25;;;;;;;0.77;0.77;;;;;;;17.43;100.00;97117.16;5043383;28;20248;-68
2023/08/19 01:53:52;;;;;;;0.70;0.70;;;;;;;17.46;100.00;97121.16;5042795;28;20481;-68
2023/08/19 01:56:18;;;;;;;0.70;0.70;;;;;;;17.20;100.00;97088.16;5042066;28;20055;-67
2023/08/19 01:58:45;;;;;;;0.60;0.60;;;;;;;17.49;100.00;97103.53;5031874;28;20049;-68
2023/08/19 02:01:12;;;;;;;0.70;0.70;;;;;;;17.09;100.00;96989.44;5021385;28;20087;-68
2023/08/19 02:03:40;;;;;;;0.70;0.70;;;;;;;17.78;100.00;97082.44;5023143;28;20060;-68
2023/08/19 02:06:07;;;;;;;0.80;0.80;;;;;;;17.95;100.00;97092.66;5021934;28;20060;-68
2023/08/19 02:08:33;;;;;;;0.70;0.70;;;;;;;18.05;98.14;97095.31;5022587;28;20083;-68
2023/08/19 02:11:00;;;;;;;0.70;0.70;;;;;;;18.05;97.09;97086.13;5021484;28;20339;-68
2023/08/19 02:13:27;;;;;;;0.70;0.70;;;;;;;18.39;93.88;97112.19;5022387;28;20048;-68
2023/08/19 02:15:53;;;;;;;0.70;0.70;;;;;;;18.10;95.45;97043.59;5022048;28;20069;-68
2023/08/19 02:18:22;;;;;;;0.77;0.77;;;;;;;18.63;90.93;97066.19;5020843;28;20083;-68
2023/08/19 02:20:48;;;;;;;0.80;0.80;;;;;;;18.10;93.23;97060.44;5021730;28;20508;-68
2023/08/19 02:23:15;;;;;;;0.70;0.70;;;;;;;18.11;96.08;97076.81;5027837;28;20140;-68
2023/08/19 02:25:42;;;;;;;0.80;0.80;;;;;;;18.44;94.21;97055.63;5041925;28;20526;-68
2023/08/19 02:28:08;;;;;;;0.80;0.80;;;;;;;18.37;94.35;97030.44;5042231;28;20069;-68
2023/08/19 02:30:35;;;;;;;0.80;0.80;;;;;;;17.89;95.06;96976.63;5041530;28;20068;-68
2023/08/19 02:33:08;;;;;;;0.80;0.80;;;;;;;18.14;97.32;97021.94;5042542;28;20049;-68
2023/08/19 02:35:34;;;;;;;0.88;0.88;;;;;;;18.65;95.85;97074.94;5040502;28;20082;-68
2023/08/19 02:38:01;;;;;;;0.80;0.80;;;;;;;18.73;93.97;97079.25;5042048;28;20131;-68
2023/08/19 02:40:30;;;;;;;0.80;0.80;;;;;;;18.10;91.43;96987.53;5040480;28;20049;-68
2023/08/19 02:42:57;;;;;;;0.80;0.80;;;;;;;18.38;93.93;97105.00;5041974;28;20088;-68
2023/08/19 02:45:24;;;;;;;0.80;0.80;;;;;;;18.07;94.12;97033.22;5042306;28;20289;-68
2023/08/19 02:47:51;;;;;;;0.80;0.80;;;;;;;18.56;95.03;97055.03;5042171;28;20519;-68
2023/08/19 02:50:18;;;;;;;0.80;0.80;;;;;;;18.29;93.34;97034.53;5040778;28;20136;-68
2023/08/19 02:52:45;;;;;;;0.70;0.70;;;;;;;18.81;92.39;97030.22;5041161;28;20053;-68
2023/08/19 02:55:11;;;;;;;0.80;0.80;;;;;;;18.47;91.05;96942.56;5041066;28;20588;-68
2023/08/19 02:57:38;;;;;;;0.80;0.80;;;;;;;18.68;92.82;97005.97;5041511;28;20455;-68
2023/08/19 03:00:06;;;;;;;0.80;0.80;;;;;;;18.98;90.86;97043.19;5042085;28;20053;-68
2023/08/19 03:02:33;;;;;;;0.70;0.70;;;;;;;18.81;90.40;97044.25;5041905;28;20372;-68
2023/08/19 03:05:00;;;;;;;0.80;0.80;;;;;;;18.70;92.19;97043.59;5041946;28;20417;-68
2023/08/19 03:07:26;;;;;;;0.90;0.90;;;;;;;18.66;91.77;97068.13;5041773;28;20049;-68
2023/08/19 03:09:53;;;;;;;0.90;0.90;;;;;;;18.76;90.67;97078.41;5041418;28;20052;-68
2023/08/19 03:12:20;;;;;;;0.80;0.80;;;;;;;18.83;89.64;97067.09;5041899;28;20523;-68
2023/08/19 03:14:46;;;;;;;0.80;0.80;;;;;;;18.90;88.19;97080.22;5041846;28;20056;-67
2023/08/19 03:17:14;;;;;;;0.80;0.80;;;;;;;18.92;88.35;97078.56;5041539;28;20053;-68
2023/08/19 03:19:40;;;;;;;0.80;0.80;;;;;;;18.69;86.95;97013.97;5041742;28;20056;-68
2023/08/19 03:22:07;;;;;;;0.80;0.80;;;;;;;19.13;86.25;97078.25;5032722;28;20080;-68
2023/08/19 03:24:34;;;;;;;0.88;0.88;;;;;;;18.96;85.76;97039.22;5041699;28;20053;-68
2023/08/19 03:27:00;;;;;;;0.80;0.80;;;;;;;19.34;83.90;97079.94;5042133;28;20132;-68
2023/08/19 03:29:27;;;;;;;0.90;0.90;;;;;;;19.28;84.83;97084.47;5042201;28;20610;-68
2023/08/19 03:31:53;;;;;;;0.88;0.88;;;;;;;18.85;87.54;97083.50;5042318;28;20072;-68
2023/08/19 03:34:20;;;;;;;0.77;0.77;;;;;;;18.05;92.27;97097.34;5040392;28;20041;-67
2023/08/19 03:36:47;;;;;;;0.80;0.80;;;;;;;18.01;93.66;97085.38;5041646;28;20045;-67
2023/08/19 03:39:14;;;;;;;0.80;0.80;;;;;;;18.35;91.29;97100.19;5042138;28;20131;-67
2023/08/19 03:41:40;;;;;;;0.80;0.80;;;;;;;18.46;91.38;97095.28;5043049;28;20053;-68
2023/08/19 03:44:07;;;;;;;0.90;0.90;;;;;;;18.51;91.93;97086.38;5046097;28;20045;-68
2023/08/19 03:46:34;;;;;;;0.80;0.80;;;;;;;18.64;89.75;97089.41;5046003;28;20048;-67
2023/08/19 03:49:00;;;;;;;0.80;0.80;;;;;;;18.76;87.75;97098.03;5044653;28;20100;-68
2023/08/19 03:51:27;;;;;;;0.80;0.80;;;;;;;18.75;86.33;97085.25;5045885;28;20057;-67
2023/08/19 03:53:54;;;;;;;0.82;0.82;;;;;;;18.45;83.84;97037.56;5044230;28;20123;-67
2023/08/19 03:56:20;;;;;;;0.80;0.80;;;;;;;18.74;84.98;97097.69;5045262;28;20053;-67
2023/08/19 03:58:47;;;;;;;0.80;0.80;;;;;;;18.42;83.89;97026.38;5045637;28;20132;-67
2023/08/19 04:01:14;;;;;;;0.80;0.80;;;;;;;18.86;84.38;97097.09;5045431;28;20049;-68
2023/08/19 04:03:41;;;;;;;0.80;0.80;;;;;;;19.01;83.62;97080.84;5045987;28;20055;-67
2023/08/19 04:06:07;;;;;;;0.75;0.75;;;;;;;17.35;83.92;96830.00;5043916;28;20056;-66
2023/08/19 04:08:34;;;;;;;0.80;0.80;;;;;;;19.13;83.29;97117.56;5044436;28;20068;-68
2023/08/19 04:11:07;;;;;;;0.80;0.80;;;;;;;19.19;83.29;97096.19;5044971;28;20056;-67
2023/08/19 04:13:34;;;;;;;;;;;;;;;19.24;82.94;97084.47;5045486;28;20080;-67
2023/08/19 04:16:05;;;;;;;0.80;0.80;;;;;;;19.08;85.18;97109.59;5043896;28;19924;-68
2023/08/19 04:18:33;;;;;;;0.82;0.82;;;;;;;19.20;84.11;97100.59;5042751;28;20490;-69
2023/08/19 04:21:08;;;;;;;0.80;0.80;;;;;;;19.27;83.49;97092.06;5042915;28;20061;-68
2023/08/19 04:23:35;;;;;;;0.90;0.90;;;;;;;19.37;82.53;97119.22;5042870;28;20053;-68
2023/08/19 04:26:02;;;;;;;0.73;0.73;;;;;;;19.54;82.14;97087.22;5044458;28;20059;-68
2023/08/19 04:28:30;;;;;;;0.80;0.80;;;;;;;19.53;82.04;97091.25;5043061;28;20412;-68
2023/08/19 04:31:06;;;;;;;0.80;0.80;;;;;;;19.10;83.15;97044.59;5043429;28;20049;-68
2023/08/19 04:33:34;;;;;;;0.70;0.70;;;;;;;19.47;82.69;97104.19;5044932;28;20056;-68
2023/08/19 04:36:02;;;;;;;0.80;0.80;;;;;;;19.58;82.19;97093.56;5043048;28;20126;-68
2023/08/19 04:38:28;;;;;;;0.90;0.90;;;;;;;19.65;81.91;97108.72;5044073;28;20420;-68
2023/08/19 04:40:56;;;;;;;0.80;0.80;;;;;;;19.68;81.48;97079.75;5043560;28;20087;-68
2023/08/19 04:43:23;;;;;;;0.80;0.80;;;;;;;19.87;80.73;97090.25;5041750;28;20044;-68
2023/08/19 04:45:49;;;;;;;0.70;0.70;;;;;;;19.92;80.15;97089.72;5039230;28;20065;-68
2023/08/19 04:48:16;;;;;;;0.90;0.90;;;;;;;20.05;79.44;97087.88;5024211;28;20061;-68
2023/08/19 04:50:43;;;;;;;0.80;0.80;;;;;;;20.24;78.03;97090.75;5023875;28;20056;-68
2023/08/19 04:53:10;;;;;;;0.80;0.80;;;;;;;20.31;77.62;97092.63;5023519;28;20057;-69
2023/08/19 04:55:36;;;;;;;0.90;0.90;;;;;;;20.02;77.69;97022.06;5023461;28;20405;-68
2023/08/19 04:58:03;;;;;;;0.82;0.82;;;;;;;20.48;77.07;97071.75;5022650;28;20053;-68
2023/08/19 05:00:30;;;;;;;0.90;0.90;;;;;;;20.88;74.42;97084.56;5020965;28;20065;-65
2023/08/19 05:02:56;;;;;;;0.80;0.80;;;;;;;21.06;73.70;97082.13;5021550;28;20067;-66
2023/08/19 05:05:24;;;;;;;0.90;0.90;;;;;;;21.22;72.36;97084.16;5021902;28;20107;-68
2023/08/19 05:07:50;;;;;;;0.80;0.80;;;;;;;21.48;70.89;97072.63;5022725;28;20057;-68
2023/08/19 05:10:17;;;;;;;0.90;0.90;;;;;;;21.56;72.20;97074.03;5022488;28;20057;-66
2023/08/19 05:12:44;;;;;;;1.00;1.00;;;;;;;21.76;71.32;97086.06;5022694;28;20513;-66
2023/08/19 05:15:12;;;;;;;0.80;0.80;;;;;;;21.86;70.77;97084.97;5023866;28;20049;-66
2023/08/19 05:17:39;;;;;;;1.00;1.00;;;;;;;22.00;69.16;97081.75;5038947;28;20053;-66
2023/08/19 05:20:06;;;;;;;0.85;0.85;;;;;;;22.07;68.29;97087.22;5023675;28;20145;-67
2023/08/19 05:22:33;;;;;;;0.98;0.98;;;;;;;22.34;67.21;97073.56;5024825;28;20391;-67
2023/08/19 05:25:00;;;;;;;0.90;0.90;;;;;;;22.17;67.39;97031.72;5042086;28;20056;-67
2023/08/19 05:27:26;;;;;;;1.10;1.10;;;;;;;22.52;67.04;97055.31;5043449;28;20045;-66
2023/08/19 05:29:53;;;;;;;1.00;1.00;;;;;;;22.64;66.34;97063.00;5042129;28;20052;-66
2023/08/19 05:32:20;;;;;;;1.00;1.00;;;;;;;22.71;64.83;97057.16;5043203;28;20051;-67
2023/08/19 05:34:47;;;;;;;0.90;0.90;;;;;;;23.03;63.80;97062.63;5041629;28;20057;-68
2023/08/19 05:37:13;;;;;;;1.10;1.10;;;;;;;23.36;63.61;97086.63;5041673;28;20040;-67
2023/08/19 05:39:40;;;;;;;1.02;1.02;;;;;;;23.61;61.97;97093.03;5041428;28;20049;-66
2023/08/19 05:42:07;;;;;;;1.00;1.00;;;;;;;23.79;62.50;97098.06;5040919;28;20057;-67
2023/08/19 05:44:33;;;;;;;1.20;1.20;;;;;;;23.80;62.13;97071.38;5042276;28;20384;-67
2023/08/19 05:47:00;;;;;;;1.00;1.00;;;;;;;23.89;62.95;97083.59;5041447;28;20076;-67
2023/08/19 05:49:27;;;;;;;1.10;1.10;;;;;;;23.31;63.66;96994.69;5041416;28;20052;-67
2023/08/19 05:51:54;;;;;;;1.10;1.10;;;;;;;23.92;63.32;97073.38;5041089;28;20148;-67
2023/08/19 05:54:20;;;;;;;1.10;1.10;;;;;;;23.93;62.97;97069.31;5040275;28;20128;-68
2023/08/19 05:56:47;;;;;;;1.10;1.10;;;;;;;23.91;62.66;97066.16;5041324;28;20049;-68
2023/08/19 05:59:14;;;;;;;1.05;1.05;;;;;;;23.82;61.32;97080.22;5039781;28;20589;-67
2023/08/19 06:01:40;;;;;;;1.00;1.00;;;;;;;23.84;61.34;97084.16;5040033;28;20498;-67
2023/08/19 06:04:07;;;;;;;1.05;1.05;;;;;;;23.55;61.57;97038.28;5039548;28;20053;-68
2023/08/19 06:06:34;;;;;;;1.00;1.00;;;;;;;23.92;61.29;97084.69;5040956;28;20053;-68
2023/08/19 06:09:00;;;;;;;1.20;1.20;;;;;;;23.95;60.68;97094.31;5039258;28;20140;-68
2023/08/19 06:11:28;;;;;;;1.10;1.10;;;;;;;23.68;60.66;97018.44;5039727;28;20048;-68
2023/08/19 06:13:54;;;;;;;1.00;1.00;;;;;;;24.25;60.42;97088.78;5039411;28;20144;-68
2023/08/19 06:16:21;;;;;;;1.10;1.10;;;;;;;24.16;59.74;97071.75;5040836;28;20049;-68
2023/08/19 06:18:48;;;;;;;1.10;1.10;;;;;;;24.38;59.75;97094.41;5040589;28;20554;-67
2023/08/19 06:21:14;;;;;;;1.20;1.20;;;;;;;24.66;58.69;97082.84;5039210;28;20044;-67
2023/08/19 06:23:41;;;;;;;1.20;1.20;;;;;;;24.76;58.99;97081.66;5040761;28;20506;-66
2023/08/19 06:26:08;;;;;;;1.10;1.10;;;;;;;24.87;57.00;97093.38;5040872;28;20053;-66
2023/08/19 06:28:34;;;;;;;1.02;1.02;;;;;;;24.87;58.18;97093.38;5040439;28;20057;-67
2023/08/19 06:31:01;;;;;;;1.20;1.20;;;;;;;24.94;57.93;97076.06;5040735;28;20045;-66
2023/08/19 06:33:28;;;;;;;1.08;1.08;;;;;;;25.22;57.95;97097.66;5040772;28;20049;-66
2023/08/19 06:35:57;;;;;;;1.25;1.25;;;;;;;25.49;56.80;97096.19;5041068;28;20064;-66
2023/08/19 06:38:29;;;;;;;1.10;1.10;;;;;;;25.50;56.84;97077.94;5041245;28;20064;-67
2023/08/19 06:41:07;;;;;;;1.30;1.30;;;;;;;25.83;55.77;97096.78;5040725;28;20454;-67
2023/08/19 06:43:36;;;;;;;1.23;1.23;;;;;;;26.13;54.81;97103.66;5040929;28;20040;-67
2023/08/19 06:46:05;;;;;;;1.40;1.40;;;;;;;26.40;54.01;97095.13;5039297;28;20053;-67
2023/08/19 06:48:33;;;;;;;1.40;1.40;;;;;;;26.56;53.80;97100.47;5041560;28;20676;-67
2023/08/19 06:51:01;;;;;;;1.40;1.40;;;;;;;26.68;53.05;97068.31;5041185;28;20055;-67
2023/08/19 06:53:28;;;;;;;1.20;1.20;;;;;;;26.77;51.82;97034.16;5041052;28;20061;-67
2023/08/19 06:56:09;;;;;;;1.50;1.50;;;;;;;27.42;50.78;97074.09;5040719;28;20057;-67
2023/08/19 06:58:41;;;;;;;1.70;1.70;;;;;;;27.46;51.05;97080.41;5041236;28;20057;-66
2023/08/19 07:01:14;;;;;;;1.50;1.50;;;;;;;27.77;51.55;97072.31;5041140;28;20052;-67
2023/08/19 07:03:41;;;;;;;1.30;1.30;;;;;;;27.44;50.75;97030.94;5040476;28;20182;-67
2023/08/19 07:06:09;;;;;;;1.50;1.50;;;;;;;28.10;50.86;97066.59;5039171;28;20132;-68
2023/08/19 07:08:39;;;;;;;1.77;1.77;;;;;;;27.86;51.52;97028.78;5038662;28;20052;-66
2023/08/19 07:11:07;;;;;;;1.50;1.50;;;;;;;27.52;52.52;97024.38;5034599;28;20067;-67
2023/08/19 07:13:35;;;;;;;1.40;1.40;;;;;;;27.70;52.11;97021.44;5055275;28;20068;-66
2023/08/19 07:16:03;;;;;;;1.65;1.65;;;;;;;27.96;51.16;97039.63;5040232;28;20059;-67
2023/08/19 07:18:35;;;;;;;1.52;1.52;;;;;;;28.30;51.88;97051.72;5040378;28;20457;-66
2023/08/19 07:21:04;;;;;;;1.80;1.80;;;;;;;28.57;50.85;97038.06;5039233;28;20048;-67
2023/08/19 07:23:31;;;;;;;1.90;1.90;;;;;;;28.72;49.93;97058.03;5034208;28;20057;-67
2023/08/19 07:25:58;;;;;;;1.98;1.98;;;;;;;28.90;48.96;97069.22;5021321;28;20060;-67
2023/08/19 07:28:25;;;;;;;1.83;1.83;;;;;;;29.34;48.98;97072.88;5019562;28;20482;-67
2023/08/19 07:30:52;;;;;;;1.80;1.80;;;;;;;29.63;46.42;97078.53;5021349;28;20436;-67
2023/08/19 07:33:19;;;;;;;1.73;1.73;;;;;;;29.68;45.87;97066.44;5021667;28;20066;-67
2023/08/19 07:35:46;;;;;;;1.88;1.88;;;;;;;29.78;45.87;97044.25;5021311;28;20081;-67
2023/08/19 07:38:13;;;;;;;1.98;1.98;;;;;;;30.17;43.87;97088.44;5019396;28;20497;-67
2023/08/19 07:40:41;;;;;;;1.98;1.98;;;;;;;30.14;45.15;97050.22;5019436;28;20050;-67
2023/08/19 07:43:07;;;;;;;1.90;1.90;;;;;;;30.56;44.34;97075.44;5020485;28;20058;-67
2023/08/19 07:45:35;;;;;;;1.80;1.80;;;;;;;30.64;42.83;97077.34;5019635;28;20819;-66
2023/08/19 07:48:02;;;;;;;1.80;1.80;;;;;;;30.59;43.65;97080.94;5021788;28;20280;-66
2023/08/19 07:50:29;;;;;;;1.45;1.45;;;;;;;30.07;41.93;97019.19;5021314;28;20054;-67
2023/08/19 07:52:56;;;;;;;1.70;1.70;;;;;;;29.42;41.47;97066.28;5021784;28;20128;-66
2023/08/19 07:55:22;;;;;;;2.00;2.00;;;;;;;29.08;43.08;97066.22;5021046;28;20065;-68
2023/08/19 07:57:49;;;;;;;1.80;1.80;;;;;;;28.77;43.16;97057.34;5019554;28;20046;-66
2023/08/19 08:00:16;;;;;;;1.85;1.85;;;;;;;28.84;43.24;97074.06;5019564;28;20054;-67
2023/08/19 08:02:42;;;;;;;1.73;1.73;;;;;;;28.98;42.50;97039.84;5020727;28;20123;-67
2023/08/19 08:05:09;;;;;;;2.03;2.03;;;;;;;29.26;43.04;97083.16;5020973;28;20057;-66
2023/08/19 08:07:37;;;;;;;1.80;1.80;;;;;;;29.25;43.20;97070.94;5021191;28;20123;-67
2023/08/19 08:10:04;;;;;;;1.80;1.80;;;;;;;28.32;45.00;97009.28;5020553;28;20061;-67
2023/08/19 08:12:31;;;;;;;1.75;1.75;;;;;;;28.30;44.95;97017.53;5020919;28;20139;-68
2023/08/19 08:14:59;;;;;;;1.70;1.70;;;;;;;28.08;44.84;97012.19;5019505;28;20064;-67
2023/08/19 08:17:26;;;;;;;1.70;1.70;;;;;;;27.13;45.02;96879.66;5018993;28;20057;-66
2023/08/19 08:19:55;;;;;;;1.70;1.70;;;;;;;27.63;46.14;97027.50;5020614;28;20592;-67
2023/08/19 08:22:23;;;;;;;1.67;1.67;;;;;;;27.70;47.10;97061.31;5021214;28;20049;-68
2023/08/19 08:24:50;;;;;;;1.63;1.63;;;;;;;27.51;49.85;97048.44;5034447;28;20048;-67
2023/08/19 08:27:16;;;;;;;1.50;1.50;;;;;;;27.92;48.46;97090.31;5038853;28;20056;-66
2023/08/19 08:29:43;;;;;;;1.55;1.55;;;;;;;28.15;48.65;97083.81;5051574;28;20561;-67
2023/08/19 08:32:10;;;;;;;1.65;1.65;;;;;;;27.99;48.70;97032.19;5049326;28;20056;-67
2023/08/19 08:34:36;;;;;;;1.67;1.67;;;;;;;28.33;49.30;97073.56;5043558;28;20061;-67
2023/08/19 08:37:03;;;;;;;1.80;1.80;;;;;;;28.06;48.33;97046.84;5041813;28;20157;-67
2023/08/19 08:39:30;;;;;;;1.58;1.58;;;;;;;28.31;48.45;97088.31;5043144;28;20424;-67
2023/08/19 08:41:58;;;;;;;1.58;1.58;;;;;;;28.30;48.47;97085.91;5043342;28;20045;-68
2023/08/19 08:44:26;;;;;;;1.60;1.60;;;;;;;28.28;50.50;97082.78;5043284;28;20053;-66
2023/08/19 08:46:55;;;;;;;1.60;1.60;;;;;;;28.29;49.80;97078.66;5041210;28;20476;-66
2023/08/19 08:49:24;;;;;;;1.65;1.65;;;;;;;28.40;48.68;97087.41;5043152;28;20301;-66
2023/08/19 08:51:52;;;;;;;1.60;1.60;;;;;;;28.56;49.40;97098.41;5042992;28;20437;-66
2023/08/19 08:54:21;;;;;;;1.48;1.48;;;;;;;28.67;48.70;97087.22;5043104;28;20045;-66
2023/08/19 08:56:48;;;;;;;1.80;1.80;;;;;;;28.77;48.16;97083.00;5043388;28;20063;-66
2023/08/19 08:59:16;;;;;;;1.80;1.80;;;;;;;28.92;45.74;97047.50;5043631;28;20484;-66
2023/08/19 09:01:45;;;;;;;1.63;1.63;;;;;;;29.17;44.48;97074.66;5042166;28;20092;-65
2023/08/19 09:04:14;;;;;;;1.60;1.60;;;;;;;28.94;43.57;97010.72;5042931;28;20045;-66
2023/08/19 09:06:43;;;;;;;1.83;1.83;;;;;;;29.21;44.03;97032.47;5041268;28;20053;-66
2023/08/19 09:09:12;;;;;;;1.70;1.70;;;;;;;29.02;42.40;96963.38;5042031;28;20594;-67
2023/08/19 09:11:44;;;;;;;1.67;1.67;;;;;;;29.91;41.24;97071.19;5040566;28;20059;-68
2023/08/19 09:14:22;;;;;;;1.65;1.65;;;;;;;29.72;41.95;97021.31;5042493;28;20041;-67
2023/08/19 09:16:49;;;;;;;1.90;1.90;;;;;;;30.37;40.99;97068.44;5042972;28;20433;-67
2023/08/19 09:19:16;;;;;;;1.60;1.60;;;;;;;30.50;40.11;97055.34;5043825;28;20659;-67
2023/08/19 09:21:43;;;;;;;1.85;1.85;;;;;;;31.24;38.89;97062.09;5043729;28;20052;-68
2023/08/19 09:24:15;;;;;;;1.92;1.92;;;;;;;31.64;38.60;97061.13;5033627;28;20081;-68
2023/08/19 09:26:42;;;;;;;1.98;1.98;;;;;;;32.06;37.52;97070.56;5023486;28;20068;-66
2023/08/19 09:29:09;;;;;;;2.17;2.17;;;;;;;31.60;37.25;97054.88;5023648;28;20539;-69
2023/08/19 09:31:38;;;;;;;1.73;1.73;;;;;;;31.72;36.67;97033.59;5023904;28;20061;-69
2023/08/19 09:34:05;;;;;;;1.88;1.88;;;;;;;32.03;36.61;97067.91;5024203;28;20049;-70
2023/08/19 09:36:32;;;;;;;1.70;1.70;;;;;;;31.96;36.35;97054.09;5023882;28;20500;-67
2023/08/19 09:38:59;;;;;;;2.03;2.03;;;;;;;32.22;35.88;97060.47;5022625;28;20049;-69
2023/08/19 09:41:27;;;;;;;1.83;1.83;;;;;;;32.50;36.18;97072.84;5023898;28;20050;-69
2023/08/19 09:43:54;;;;;;;2.05;2.05;;;;;;;32.46;35.70;97017.84;5022045;28;20440;-67
2023/08/19 09:46:30;;;;;;;1.88;1.88;;;;;;;32.81;34.39;97069.84;5023898;28;20057;-67
2023/08/19 09:48:58;;;;;;;1.70;1.70;;;;;;;32.73;34.85;97062.25;5024196;28;20061;-67
2023/08/19 09:51:26;;;;;;;2.17;2.17;;;;;;;32.69;35.39;97081.81;5023658;28;20060;-67
2023/08/19 09:53:53;;;;;;;1.77;1.77;;;;;;;33.05;34.61;97060.78;5023917;28;20060;-67
2023/08/19 09:56:21;;;;;;;2.10;2.10;;;;;;;32.83;34.16;97029.94;5022075;28;20054;-65
2023/08/19 09:58:53;;;;;;;1.67;1.67;;;;;;;33.76;33.66;97048.53;5023436;28;20053;-66
2023/08/19 10:01:22;;;;;;;2.05;2.05;;;;;;;33.72;33.12;97054.53;5023543;28;20049;-65
2023/08/19 10:03:49;;;;;;;2.20;2.20;;;;;;;33.17;33.31;97042.25;5023182;28;20053;-66
2023/08/19 10:06:26;;;;;;;2.03;2.03;;;;;;;32.15;35.53;97050.25;5022550;28;20084;-66
2023/08/19 10:09:04;;;;;;;1.73;1.73;;;;;;;31.85;35.15;97057.66;5022212;28;20061;-68
2023/08/19 10:11:31;;;;;;;1.52;1.52;;;;;;;32.20;35.63;97057.34;5022212;28;20049;-66
2023/08/19 10:14:00;;;;;;;2.08;2.08;;;;;;;32.69;36.32;97042.41;5021136;28;20061;-66
2023/08/19 10:16:29;;;;;;;1.80;1.80;;;;;;;32.64;37.88;97051.81;5021872;28;20053;-66
2023/08/19 10:18:59;;;;;;;2.08;2.08;;;;;;;32.50;37.59;97046.28;5022805;28;20111;-66
2023/08/19 10:21:30;;;;;;;1.80;1.80;;;;;;;32.39;37.01;96981.03;5022362;28;20052;-67
2023/08/19 10:23:58;;;;;;;1.92;1.92;;;;;;;32.73;36.56;97014.25;5029403;28;20051;-67
2023/08/19 10:26:25;;;;;;;1.98;1.98;;;;;;;32.70;36.61;97061.22;5042681;28;20057;-66
2023/08/19 10:29:05;;;;;;;1.95;1.95;;;;;;;32.47;36.99;97002.19;5042518;28;20515;-66
2023/08/19 10:31:33;;;;;;;1.85;1.85;;;;;;;32.51;37.26;97051.50;5042172;28;20051;-67
2023/08/19 10:34:10;;;;;;;1.83;1.83;;;;;;;32.51;36.33;97054.38;5042263;28;20048;-67
2023/08/19 10:36:37;;;;;;;1.80;1.80;;;;;;;32.20;36.40;97017.97;5042480;28;20044;-65
2023/08/19 10:39:14;;;;;;;1.80;1.80;;;;;;;32.49;36.28;97054.09;5041941;28;20053;-65
2023/08/19 10:41:41;;;;;;;1.65;1.65;;;;;;;32.28;36.45;97046.94;5041899;28;20060;-66
2023/08/19 10:44:11;;;;;;;1.75;1.75;;;;;;;31.66;37.42;97058.56;5041793;28;20546;-65
2023/08/19 10:46:38;;;;;;;2.17;2.17;;;;;;;31.71;36.74;97060.69;5041839;28;20053;-66
2023/08/19 10:49:14;;;;;;;1.60;1.60;;;;;;;32.06;36.71;97046.81;5008629;28;20054;-67
2023/08/19 10:51:48;;;;;;;1.95;1.95;;;;;;;32.03;36.90;97056.47;5001833;28;20129;-67
2023/08/19 10:54:23;;;;;;;1.92;1.92;;;;;;;32.09;36.13;97042.97;5002197;28;20061;-64
2023/08/19 10:57:13;;;;;;;1.90;1.90;;;;;;;32.31;36.04;97051.66;5016521;28;20064;-68
2023/08/19 10:59:42;;;;;;;2.15;2.15;;;;;;;31.66;35.62;96995.53;5002488;28;20155;-68
2023/08/19 11:02:11;;;;;;;1.52;1.52;;;;;;;31.39;36.22;96999.78;5002174;28;20050;-68
2023/08/19 11:04:42;;;;;;;1.90;1.90;;;;;;;32.22;35.91;97044.06;5002466;28;20050;-68
2023/08/19 11:07:10;;;;;;;1.67;1.67;;;;;;;31.85;36.60;96996.72;5002148;28;20053;-68
2023/08/19 11:09:41;;;;;;;1.95;1.95;;;;;;;31.97;37.41;97044.19;5001884;28;20053;-68
2023/08/19 11:12:11;;;;;;;2.25;2.25;;;;;;;31.82;37.71;96991.97;5002535;28;20057;-68
2023/08/19 11:14:38;;;;;;;2.05;2.05;;;;;;;31.31;37.13;96963.53;5017331;28;20073;-65
2023/08/19 11:17:05;;;;;;;1.80;1.80;;;;;;;32.26;36.67;97038.06;5002400;28;20052;-65
2023/08/19 11:19:32;;;;;;;2.22;2.22;;;;;;;32.84;35.10;97037.22;5002411;28;20149;-65
2023/08/19 11:21:59;;;;;;;2.17;2.17;;;;;;;32.17;35.37;97041.16;5002120;28;20349;-66
2023/08/19 11:24:33;;;;;;;1.80;1.80;;;;;;;32.38;35.76;97038.91;5024188;28;20530;-66
2023/08/19 11:27:00;;;;;;;1.85;1.85;;;;;;;33.04;34.80;97022.66;5042422;28;20060;-67
2023/08/19 11:29:27;;;;;;;1.75;1.75;;;;;;;33.27;34.90;96995.53;5041555;28;20512;-67
2023/08/19 11:31:55;;;;;;;2.08;2.08;;;;;;;33.69;33.90;97026.84;5041539;28;20064;-66
2023/08/19 11:34:28;;;;;;;1.50;1.50;;;;;;;33.10;35.56;97014.81;5041503;28;20045;-67
2023/08/19 11:36:55;;;;;;;2.10;2.10;;;;;;;33.10;36.41;97003.34;5041357;28;20484;-67
2023/08/19 11:39:22;;;;;;;1.98;1.98;;;;;;;32.38;37.60;96988.09;5040146;28;20052;-66